sensor_id;sensor_type;location;lat;lon;timestamp;temperature;humidity
12841;DHT22;6487;48.626;12.486;2023-04-24T00:01:07;12.90;99.90
12841;DHT22;6487;48.626;12.486;2023-04-24T00:03:36;12.80;99.90
12841;DHT22;6487;48.626;12.486;2023-04-24T00:06:06;12.80;99.90
12841;DHT22;6487;48.626;12.486;2023-04-24T00:08:44;12.90;99.90
12841;DHT22;6487;48.626;12.486;2023-04-24T00:11:12;12.90;99.90
12841;DHT22;6487;48.626;12.486;2023-04-24T00:13:41;12.90;99.90
12841;DHT22;6487;48.626;12.486;2023-04-24T00:16:11;12.90;99.90
12841;DHT22;6487;48.626;12.486;2023-04-24T00:18:39;12.90;99.90
12841;DHT22;6487;48.626;12.486;2023-04-24T00:21:08;13.00;99.90
12841;DHT22;6487;48.626;12.486;2023-04-24T00:23:36;12.90;99.90
12841;DHT22;6487;48.626;12.486;2023-04-24T00:26:07;13.00;99.90
12841;DHT22;6487;48.626;12.486;2023-04-24T00:28:36;12.90;99.90
12841;DHT22;6487;48.626;12.486;2023-04-24T00:31:04;12.80;99.90
12841;DHT22;6487;48.626;12.486;2023-04-24T00:33:34;12.70;99.90
12841;DHT22;6487;48.626;12.486;2023-04-24T00:36:02;12.70;99.90
12841;DHT22;6487;48.626;12.486;2023-04-24T00:38:31;12.80;99.90
12841;DHT22;6487;48.626;12.486;2023-04-24T00:41:02;12.70;99.90
12841;DHT22;6487;48.626;12.486;2023-04-24T00:43:30;12.60;99.90
12841;DHT22;6487;48.626;12.486;2023-04-24T00:45:58;12.60;99.90
12841;DHT22;6487;48.626;12.486;2023-04-24T00:48:31;12.50;99.90
12841;DHT22;6487;48.626;12.486;2023-04-24T00:51:01;12.50;99.90
12841;DHT22;6487;48.626;12.486;2023-04-24T00:53:29;12.50;99.90
12841;DHT22;6487;48.626;12.486;2023-04-24T00:56:01;12.40;99.90
12841;DHT22;6487;48.626;12.486;2023-04-24T00:58:30;12.40;99.90
12841;DHT22;6487;48.626;12.486;2023-04-24T01:00:58;12.40;99.90
12841;DHT22;6487;48.626;12.486;2023-04-24T01:03:30;12.40;99.90
12841;DHT22;6487;48.626;12.486;2023-04-24T01:06:01;12.50;99.90
12841;DHT22;6487;48.626;12.486;2023-04-24T01:08:29;12.50;99.90
12841;DHT22;6487;48.626;12.486;2023-04-24T01:10:58;12.50;99.90
12841;DHT22;6487;48.626;12.486;2023-04-24T01:13:26;12.40;99.90
12841;DHT22;6487;48.626;12.486;2023-04-24T01:15:55;12.50;99.90
12841;DHT22;6487;48.626;12.486;2023-04-24T01:18:23;12.60;99.90
12841;DHT22;6487;48.626;12.486;2023-04-24T01:20:53;12.50;99.90
12841;DHT22;6487;48.626;12.486;2023-04-24T01:23:26;12.60;99.90
12841;DHT22;6487;48.626;12.486;2023-04-24T01:25:55;12.60;99.90
12841;DHT22;6487;48.626;12.486;2023-04-24T01:28:26;12.60;99.90
12841;DHT22;6487;48.626;12.486;2023-04-24T01:30:55;12.70;99.90
12841;DHT22;6487;48.626;12.486;2023-04-24T01:33:24;12.60;99.90
12841;DHT22;6487;48.626;12.486;2023-04-24T01:35:52;12.60;99.90
12841;DHT22;6487;48.626;12.486;2023-04-24T01:38:22;12.60;99.90
12841;DHT22;6487;48.626;12.486;2023-04-24T01:40:51;12.60;99.90
12841;DHT22;6487;48.626;12.486;2023-04-24T01:43:21;12.70;99.90
12841;DHT22;6487;48.626;12.486;2023-04-24T01:45:50;12.60;99.90
12841;DHT22;6487;48.626;12.486;2023-04-24T01:48:18;12.60;99.90
12841;DHT22;6487;48.626;12.486;2023-04-24T01:50:47;12.60;99.90
12841;DHT22;6487;48.626;12.486;2023-04-24T01:53:15;12.60;99.90
12841;DHT22;6487;48.626;12.486;2023-04-24T01:55:43;12.60;99.90
12841;DHT22;6487;48.626;12.486;2023-04-24T01:58:14;12.70;99.90
12841;DHT22;6487;48.626;12.486;2023-04-24T02:00:43;12.60;99.90
12841;DHT22;6487;48.626;12.486;2023-04-24T02:03:14;12.60;99.90
12841;DHT22;6487;48.626;12.486;2023-04-24T02:05:43;12.60;99.90
12841;DHT22;6487;48.626;12.486;2023-04-24T02:08:12;12.60;99.90
12841;DHT22;6487;48.626;12.486;2023-04-24T02:10:40;12.50;99.90
12841;DHT22;6487;48.626;12.486;2023-04-24T02:13:08;12.50;99.90
12841;DHT22;6487;48.626;12.486;2023-04-24T02:15:38;12.60;99.90
12841;DHT22;6487;48.626;12.486;2023-04-24T02:18:06;12.60;99.90
12841;DHT22;6487;48.626;12.486;2023-04-24T02:20:35;12.70;99.90
12841;DHT22;6487;48.626;12.486;2023-04-24T02:23:03;12.60;99.90
12841;DHT22;6487;48.626;12.486;2023-04-24T02:25:32;12.60;99.90
12841;DHT22;6487;48.626;12.486;2023-04-24T02:28:01;12.50;99.90
12841;DHT22;6487;48.626;12.486;2023-04-24T02:30:29;12.50;99.90
12841;DHT22;6487;48.626;12.486;2023-04-24T02:32:59;12.50;99.90
12841;DHT22;6487;48.626;12.486;2023-04-24T02:35:27;12.50;99.90
12841;DHT22;6487;48.626;12.486;2023-04-24T02:37:56;12.50;99.90
12841;DHT22;6487;48.626;12.486;2023-04-24T02:40:24;12.40;99.90
12841;DHT22;6487;48.626;12.486;2023-04-24T02:42:53;12.40;99.90
12841;DHT22;6487;48.626;12.486;2023-04-24T02:45:21;12.50;99.90
12841;DHT22;6487;48.626;12.486;2023-04-24T02:47:49;12.50;99.90
12841;DHT22;6487;48.626;12.486;2023-04-24T02:50:19;12.50;99.90
12841;DHT22;6487;48.626;12.486;2023-04-24T02:52:47;12.40;99.90
12841;DHT22;6487;48.626;12.486;2023-04-24T02:55:16;12.40;99.90
12841;DHT22;6487;48.626;12.486;2023-04-24T02:57:47;12.40;99.90
12841;DHT22;6487;48.626;12.486;2023-04-24T03:00:18;12.40;99.90
12841;DHT22;6487;48.626;12.486;2023-04-24T03:02:47;12.40;99.90
12841;DHT22;6487;48.626;12.486;2023-04-24T03:05:20;12.40;99.90
12841;DHT22;6487;48.626;12.486;2023-04-24T03:07:48;12.40;99.90
12841;DHT22;6487;48.626;12.486;2023-04-24T03:10:16;12.40;99.90
12841;DHT22;6487;48.626;12.486;2023-04-24T03:12:45;12.40;99.90
12841;DHT22;6487;48.626;12.486;2023-04-24T03:15:13;12.40;99.90
12841;DHT22;6487;48.626;12.486;2023-04-24T03:17:42;12.30;99.90
12841;DHT22;6487;48.626;12.486;2023-04-24T03:20:10;12.30;99.90
12841;DHT22;6487;48.626;12.486;2023-04-24T03:22:40;12.30;99.90
12841;DHT22;6487;48.626;12.486;2023-04-24T03:25:09;12.30;99.90
12841;DHT22;6487;48.626;12.486;2023-04-24T03:27:37;12.30;99.90
12841;DHT22;6487;48.626;12.486;2023-04-24T03:30:07;12.20;99.90
12841;DHT22;6487;48.626;12.486;2023-04-24T03:32:36;12.20;99.90
12841;DHT22;6487;48.626;12.486;2023-04-24T03:35:06;12.10;99.90
12841;DHT22;6487;48.626;12.486;2023-04-24T03:37:35;12.20;99.90
12841;DHT22;6487;48.626;12.486;2023-04-24T03:40:06;12.20;99.90
12841;DHT22;6487;48.626;12.486;2023-04-24T03:42:36;12.20;99.90
12841;DHT22;6487;48.626;12.486;2023-04-24T03:45:06;12.20;99.90
12841;DHT22;6487;48.626;12.486;2023-04-24T03:47:35;12.10;99.90
12841;DHT22;6487;48.626;12.486;2023-04-24T03:50:04;12.20;99.90
12841;DHT22;6487;48.626;12.486;2023-04-24T03:52:33;12.20;99.90
12841;DHT22;6487;48.626;12.486;2023-04-24T03:55:01;12.10;99.90
12841;DHT22;6487;48.626;12.486;2023-04-24T03:57:31;12.10;99.90
12841;DHT22;6487;48.626;12.486;2023-04-24T04:00:00;12.10;99.90
12841;DHT22;6487;48.626;12.486;2023-04-24T04:02:31;12.10;99.90
12841;DHT22;6487;48.626;12.486;2023-04-24T04:04:59;12.10;99.90
12841;DHT22;6487;48.626;12.486;2023-04-24T04:07:29;12.00;99.90
12841;DHT22;6487;48.626;12.486;2023-04-24T04:09:57;12.00;99.90
12841;DHT22;6487;48.626;12.486;2023-04-24T04:12:25;12.00;99.90
12841;DHT22;6487;48.626;12.486;2023-04-24T04:14:55;12.00;99.90
12841;DHT22;6487;48.626;12.486;2023-04-24T04:17:23;12.00;99.90
12841;DHT22;6487;48.626;12.486;2023-04-24T04:19:52;11.90;99.90
12841;DHT22;6487;48.626;12.486;2023-04-24T04:22:20;12.00;99.90
12841;DHT22;6487;48.626;12.486;2023-04-24T04:24:51;12.00;99.90
12841;DHT22;6487;48.626;12.486;2023-04-24T04:27:19;12.00;99.90
12841;DHT22;6487;48.626;12.486;2023-04-24T04:29:48;11.90;99.90
12841;DHT22;6487;48.626;12.486;2023-04-24T04:32:18;11.90;99.90
12841;DHT22;6487;48.626;12.486;2023-04-24T04:34:46;11.90;99.90
12841;DHT22;6487;48.626;12.486;2023-04-24T04:37:19;11.90;99.90
12841;DHT22;6487;48.626;12.486;2023-04-24T04:39:47;11.80;99.90
12841;DHT22;6487;48.626;12.486;2023-04-24T04:42:15;11.80;99.90
12841;DHT22;6487;48.626;12.486;2023-04-24T04:44:45;11.80;99.90
12841;DHT22;6487;48.626;12.486;2023-04-24T04:47:14;11.80;99.90
12841;DHT22;6487;48.626;12.486;2023-04-24T04:49:44;11.80;99.90
12841;DHT22;6487;48.626;12.486;2023-04-24T04:52:12;11.70;99.90
12841;DHT22;6487;48.626;12.486;2023-04-24T04:54:41;11.80;99.90
12841;DHT22;6487;48.626;12.486;2023-04-24T04:57:13;11.70;99.90
12841;DHT22;6487;48.626;12.486;2023-04-24T04:59:41;11.70;99.90
12841;DHT22;6487;48.626;12.486;2023-04-24T05:02:10;11.70;99.90
12841;DHT22;6487;48.626;12.486;2023-04-24T05:04:38;11.70;99.90
12841;DHT22;6487;48.626;12.486;2023-04-24T05:07:08;11.80;99.90
12841;DHT22;6487;48.626;12.486;2023-04-24T05:09:37;11.80;99.90
12841;DHT22;6487;48.626;12.486;2023-04-24T05:12:05;11.80;99.90
12841;DHT22;6487;48.626;12.486;2023-04-24T05:14:34;11.70;99.90
12841;DHT22;6487;48.626;12.486;2023-04-24T05:17:02;11.70;99.90
12841;DHT22;6487;48.626;12.486;2023-04-24T05:19:33;11.70;99.90
12841;DHT22;6487;48.626;12.486;2023-04-24T05:22:05;11.70;99.90
12841;DHT22;6487;48.626;12.486;2023-04-24T05:24:35;11.70;99.90
12841;DHT22;6487;48.626;12.486;2023-04-24T05:27:04;11.70;99.90
12841;DHT22;6487;48.626;12.486;2023-04-24T05:29:33;11.70;99.90
12841;DHT22;6487;48.626;12.486;2023-04-24T05:32:01;11.70;99.90
12841;DHT22;6487;48.626;12.486;2023-04-24T05:34:29;11.70;99.90
12841;DHT22;6487;48.626;12.486;2023-04-24T05:36:58;11.60;99.90
12841;DHT22;6487;48.626;12.486;2023-04-24T05:39:26;11.70;99.90
12841;DHT22;6487;48.626;12.486;2023-04-24T05:41:56;11.70;99.90
12841;DHT22;6487;48.626;12.486;2023-04-24T05:44:25;11.60;99.90
12841;DHT22;6487;48.626;12.486;2023-04-24T05:46:53;11.70;99.90
12841;DHT22;6487;48.626;12.486;2023-04-24T05:49:22;11.70;99.90
12841;DHT22;6487;48.626;12.486;2023-04-24T05:51:51;11.70;99.90
12841;DHT22;6487;48.626;12.486;2023-04-24T05:54:19;11.70;99.90
12841;DHT22;6487;48.626;12.486;2023-04-24T05:56:49;11.70;99.90
12841;DHT22;6487;48.626;12.486;2023-04-24T05:59:18;11.70;99.90
12841;DHT22;6487;48.626;12.486;2023-04-24T06:01:47;11.80;99.90
12841;DHT22;6487;48.626;12.486;2023-04-24T06:04:15;11.80;99.90
12841;DHT22;6487;48.626;12.486;2023-04-24T06:06:47;11.80;99.90
12841;DHT22;6487;48.626;12.486;2023-04-24T06:09:17;11.80;99.90
12841;DHT22;6487;48.626;12.486;2023-04-24T06:11:48;11.80;99.90
12841;DHT22;6487;48.626;12.486;2023-04-24T06:14:18;11.90;99.90
12841;DHT22;6487;48.626;12.486;2023-04-24T06:16:47;11.90;99.90
12841;DHT22;6487;48.626;12.486;2023-04-24T06:19:16;11.70;99.90
12841;DHT22;6487;48.626;12.486;2023-04-24T06:21:44;11.70;99.90
12841;DHT22;6487;48.626;12.486;2023-04-24T06:24:14;11.80;99.90
12841;DHT22;6487;48.626;12.486;2023-04-24T06:26:43;11.90;99.90
12841;DHT22;6487;48.626;12.486;2023-04-24T06:29:11;11.80;99.90
12841;DHT22;6487;48.626;12.486;2023-04-24T06:31:41;11.80;99.90
12841;DHT22;6487;48.626;12.486;2023-04-24T06:34:09;11.90;99.90
12841;DHT22;6487;48.626;12.486;2023-04-24T06:36:37;11.90;99.90
12841;DHT22;6487;48.626;12.486;2023-04-24T06:39:06;11.80;99.90
12841;DHT22;6487;48.626;12.486;2023-04-24T06:41:34;11.80;99.90
12841;DHT22;6487;48.626;12.486;2023-04-24T06:44:02;11.80;99.90
12841;DHT22;6487;48.626;12.486;2023-04-24T06:46:31;11.90;99.90
12841;DHT22;6487;48.626;12.486;2023-04-24T06:49:01;11.90;99.90
12841;DHT22;6487;48.626;12.486;2023-04-24T06:51:29;11.90;99.90
12841;DHT22;6487;48.626;12.486;2023-04-24T06:53:59;12.00;99.90
12841;DHT22;6487;48.626;12.486;2023-04-24T06:56:28;11.90;99.90
12841;DHT22;6487;48.626;12.486;2023-04-24T06:58:57;12.00;99.90
12841;DHT22;6487;48.626;12.486;2023-04-24T07:01:25;12.10;99.90
12841;DHT22;6487;48.626;12.486;2023-04-24T07:03:54;12.00;99.90
12841;DHT22;6487;48.626;12.486;2023-04-24T07:06:24;12.10;99.90
12841;DHT22;6487;48.626;12.486;2023-04-24T07:08:54;12.10;99.90
12841;DHT22;6487;48.626;12.486;2023-04-24T07:11:23;12.20;99.90
12841;DHT22;6487;48.626;12.486;2023-04-24T07:13:56;12.20;99.90
12841;DHT22;6487;48.626;12.486;2023-04-24T07:16:24;12.20;99.90
12841;DHT22;6487;48.626;12.486;2023-04-24T07:18:52;11.90;99.90
12841;DHT22;6487;48.626;12.486;2023-04-24T07:21:21;11.90;99.90
12841;DHT22;6487;48.626;12.486;2023-04-24T07:23:50;12.10;99.90
12841;DHT22;6487;48.626;12.486;2023-04-24T07:26:19;12.10;99.90
12841;DHT22;6487;48.626;12.486;2023-04-24T07:28:48;12.10;99.90
12841;DHT22;6487;48.626;12.486;2023-04-24T07:31:16;12.20;99.90
12841;DHT22;6487;48.626;12.486;2023-04-24T07:33:48;12.20;99.90
12841;DHT22;6487;48.626;12.486;2023-04-24T07:36:17;12.40;99.90
12841;DHT22;6487;48.626;12.486;2023-04-24T07:38:46;12.50;99.90
12841;DHT22;6487;48.626;12.486;2023-04-24T07:41:16;12.60;99.90
12841;DHT22;6487;48.626;12.486;2023-04-24T07:43:44;12.60;99.90
12841;DHT22;6487;48.626;12.486;2023-04-24T07:46:13;12.60;99.90
12841;DHT22;6487;48.626;12.486;2023-04-24T07:48:41;12.80;99.90
12841;DHT22;6487;48.626;12.486;2023-04-24T07:51:09;12.60;99.90
12841;DHT22;6487;48.626;12.486;2023-04-24T07:53:41;12.80;99.90
12841;DHT22;6487;48.626;12.486;2023-04-24T07:56:10;13.00;99.90
12841;DHT22;6487;48.626;12.486;2023-04-24T07:58:40;13.00;99.90
12841;DHT22;6487;48.626;12.486;2023-04-24T08:01:08;13.20;99.90
12841;DHT22;6487;48.626;12.486;2023-04-24T08:03:38;13.40;99.90
12841;DHT22;6487;48.626;12.486;2023-04-24T08:06:06;13.30;99.90
12841;DHT22;6487;48.626;12.486;2023-04-24T08:08:35;13.40;99.90
12841;DHT22;6487;48.626;12.486;2023-04-24T08:11:03;13.40;99.90
12841;DHT22;6487;48.626;12.486;2023-04-24T08:13:32;13.20;99.90
12841;DHT22;6487;48.626;12.486;2023-04-24T08:16:02;13.40;99.90
12841;DHT22;6487;48.626;12.486;2023-04-24T08:18:30;13.50;99.90
12841;DHT22;6487;48.626;12.486;2023-04-24T08:20:58;13.70;99.90
12841;DHT22;6487;48.626;12.486;2023-04-24T08:23:28;13.60;99.90
12841;DHT22;6487;48.626;12.486;2023-04-24T08:25:56;13.60;99.90
12841;DHT22;6487;48.626;12.486;2023-04-24T08:28:25;13.70;99.90
12841;DHT22;6487;48.626;12.486;2023-04-24T08:30:53;13.80;99.90
12841;DHT22;6487;48.626;12.486;2023-04-24T08:33:23;13.80;99.90
12841;DHT22;6487;48.626;12.486;2023-04-24T08:35:53;13.80;99.90
12841;DHT22;6487;48.626;12.486;2023-04-24T08:38:21;13.80;99.90
12841;DHT22;6487;48.626;12.486;2023-04-24T08:40:50;13.80;99.90
12841;DHT22;6487;48.626;12.486;2023-04-24T08:43:20;13.70;99.90
12841;DHT22;6487;48.626;12.486;2023-04-24T08:45:50;13.70;99.90
12841;DHT22;6487;48.626;12.486;2023-04-24T08:48:23;13.60;99.90
12841;DHT22;6487;48.626;12.486;2023-04-24T08:50:58;13.40;99.90
12841;DHT22;6487;48.626;12.486;2023-04-24T08:53:28;13.10;99.90
12841;DHT22;6487;48.626;12.486;2023-04-24T08:55:56;13.30;99.90
12841;DHT22;6487;48.626;12.486;2023-04-24T08:58:25;13.40;99.90
12841;DHT22;6487;48.626;12.486;2023-04-24T09:00:54;13.60;99.90
12841;DHT22;6487;48.626;12.486;2023-04-24T09:03:26;13.60;99.90
12841;DHT22;6487;48.626;12.486;2023-04-24T09:05:55;13.70;99.90
12841;DHT22;6487;48.626;12.486;2023-04-24T09:08:26;13.70;99.90
12841;DHT22;6487;48.626;12.486;2023-04-24T09:11:00;13.60;99.90
12841;DHT22;6487;48.626;12.486;2023-04-24T09:13:31;13.80;99.90
12841;DHT22;6487;48.626;12.486;2023-04-24T09:16:00;13.70;99.90
12841;DHT22;6487;48.626;12.486;2023-04-24T09:18:31;13.80;99.90
12841;DHT22;6487;48.626;12.486;2023-04-24T09:21:02;13.80;99.90
12841;DHT22;6487;48.626;12.486;2023-04-24T09:23:32;13.90;99.90
12841;DHT22;6487;48.626;12.486;2023-04-24T09:26:02;14.00;99.90
12841;DHT22;6487;48.626;12.486;2023-04-24T09:28:36;13.80;99.90
12841;DHT22;6487;48.626;12.486;2023-04-24T09:31:06;13.40;99.90
12841;DHT22;6487;48.626;12.486;2023-04-24T09:33:39;13.20;99.90
12841;DHT22;6487;48.626;12.486;2023-04-24T09:36:08;13.10;99.90
12841;DHT22;6487;48.626;12.486;2023-04-24T09:38:37;13.00;99.90
12841;DHT22;6487;48.626;12.486;2023-04-24T09:41:07;13.00;99.90
12841;DHT22;6487;48.626;12.486;2023-04-24T09:43:37;12.60;99.90
12841;DHT22;6487;48.626;12.486;2023-04-24T09:46:07;12.50;99.90
12841;DHT22;6487;48.626;12.486;2023-04-24T09:48:38;12.10;99.90
12841;DHT22;6487;48.626;12.486;2023-04-24T09:51:07;12.30;99.90
12841;DHT22;6487;48.626;12.486;2023-04-24T09:53:37;12.30;99.90
12841;DHT22;6487;48.626;12.486;2023-04-24T09:56:08;12.30;99.90
12841;DHT22;6487;48.626;12.486;2023-04-24T09:58:39;12.50;99.90
12841;DHT22;6487;48.626;12.486;2023-04-24T10:01:07;12.60;99.90
12841;DHT22;6487;48.626;12.486;2023-04-24T10:03:36;12.80;99.90
12841;DHT22;6487;48.626;12.486;2023-04-24T10:06:05;12.80;99.90
12841;DHT22;6487;48.626;12.486;2023-04-24T10:08:37;12.90;99.90
12841;DHT22;6487;48.626;12.486;2023-04-24T10:11:06;13.00;99.90
12841;DHT22;6487;48.626;12.486;2023-04-24T10:13:35;13.10;99.90
12841;DHT22;6487;48.626;12.486;2023-04-24T10:16:04;13.20;99.90
12841;DHT22;6487;48.626;12.486;2023-04-24T10:18:33;13.20;99.90
12841;DHT22;6487;48.626;12.486;2023-04-24T10:21:02;13.20;99.90
12841;DHT22;6487;48.626;12.486;2023-04-24T10:23:32;13.30;99.90
12841;DHT22;6487;48.626;12.486;2023-04-24T10:26:02;13.40;99.90
12841;DHT22;6487;48.626;12.486;2023-04-24T10:28:30;13.40;99.90
12841;DHT22;6487;48.626;12.486;2023-04-24T10:31:00;13.50;99.90
12841;DHT22;6487;48.626;12.486;2023-04-24T10:33:29;13.60;99.90
12841;DHT22;6487;48.626;12.486;2023-04-24T10:35:58;13.80;99.90
12841;DHT22;6487;48.626;12.486;2023-04-24T10:38:32;13.80;99.90
12841;DHT22;6487;48.626;12.486;2023-04-24T10:41:07;14.00;99.90
12841;DHT22;6487;48.626;12.486;2023-04-24T10:43:40;14.00;99.90
12841;DHT22;6487;48.626;12.486;2023-04-24T10:46:09;14.20;99.90
12841;DHT22;6487;48.626;12.486;2023-04-24T10:48:42;14.00;99.90
12841;DHT22;6487;48.626;12.486;2023-04-24T10:51:12;14.00;99.90
12841;DHT22;6487;48.626;12.486;2023-04-24T10:53:43;14.10;99.90
12841;DHT22;6487;48.626;12.486;2023-04-24T10:56:11;14.20;99.90
12841;DHT22;6487;48.626;12.486;2023-04-24T10:58:42;14.40;99.90
12841;DHT22;6487;48.626;12.486;2023-04-24T11:01:24;14.60;99.90
12841;DHT22;6487;48.626;12.486;2023-04-24T11:03:58;14.50;99.90
12841;DHT22;6487;48.626;12.486;2023-04-24T11:06:29;14.50;99.90
12841;DHT22;6487;48.626;12.486;2023-04-24T11:09:03;14.40;99.90
12841;DHT22;6487;48.626;12.486;2023-04-24T11:11:35;14.40;99.90
12841;DHT22;6487;48.626;12.486;2023-04-24T11:14:09;14.70;99.90
12841;DHT22;6487;48.626;12.486;2023-04-24T11:16:44;14.80;99.90
12841;DHT22;6487;48.626;12.486;2023-04-24T11:19:20;15.00;99.90
12841;DHT22;6487;48.626;12.486;2023-04-24T11:21:56;15.20;99.90
12841;DHT22;6487;48.626;12.486;2023-04-24T11:24:38;15.30;99.90
12841;DHT22;6487;48.626;12.486;2023-04-24T11:27:12;15.30;99.80
12841;DHT22;6487;48.626;12.486;2023-04-24T11:29:44;15.60;99.90
12841;DHT22;6487;48.626;12.486;2023-04-24T11:32:27;15.90;99.90
12841;DHT22;6487;48.626;12.486;2023-04-24T11:34:57;15.90;99.90
12841;DHT22;6487;48.626;12.486;2023-04-24T11:37:29;16.10;99.90
12841;DHT22;6487;48.626;12.486;2023-04-24T11:40:03;16.10;99.30
12841;DHT22;6487;48.626;12.486;2023-04-24T11:42:37;16.30;99.70
12841;DHT22;6487;48.626;12.486;2023-04-24T11:45:13;16.40;98.90
12841;DHT22;6487;48.626;12.486;2023-04-24T11:47:44;16.20;97.70
12841;DHT22;6487;48.626;12.486;2023-04-24T11:50:13;16.10;97.50
12841;DHT22;6487;48.626;12.486;2023-04-24T11:52:44;15.80;96.90
12841;DHT22;6487;48.626;12.486;2023-04-24T11:55:26;15.90;97.20
12841;DHT22;6487;48.626;12.486;2023-04-24T11:57:58;16.00;98.10
12841;DHT22;6487;48.626;12.486;2023-04-24T12:00:29;15.70;97.70
12841;DHT22;6487;48.626;12.486;2023-04-24T12:03:06;15.40;97.30
12841;DHT22;6487;48.626;12.486;2023-04-24T12:05:36;15.40;98.00
12841;DHT22;6487;48.626;12.486;2023-04-24T12:08:05;15.40;99.50
12841;DHT22;6487;48.626;12.486;2023-04-24T12:10:35;14.70;99.90
12841;DHT22;6487;48.626;12.486;2023-04-24T12:13:04;14.80;99.90
12841;DHT22;6487;48.626;12.486;2023-04-24T12:15:32;14.60;99.90
12841;DHT22;6487;48.626;12.486;2023-04-24T12:18:00;14.50;99.90
12841;DHT22;6487;48.626;12.486;2023-04-24T12:20:30;14.30;99.90
12841;DHT22;6487;48.626;12.486;2023-04-24T12:23:00;14.20;99.90
12841;DHT22;6487;48.626;12.486;2023-04-24T12:25:30;14.40;99.90
12841;DHT22;6487;48.626;12.486;2023-04-24T12:28:12;14.30;99.90
12841;DHT22;6487;48.626;12.486;2023-04-24T12:30:44;14.30;99.90
12841;DHT22;6487;48.626;12.486;2023-04-24T12:33:18;14.20;99.90
12841;DHT22;6487;48.626;12.486;2023-04-24T12:35:47;14.00;99.90
12841;DHT22;6487;48.626;12.486;2023-04-24T12:38:21;14.10;99.90
12841;DHT22;6487;48.626;12.486;2023-04-24T12:41:01;14.00;99.90
12841;DHT22;6487;48.626;12.486;2023-04-24T12:43:33;14.00;99.90
12841;DHT22;6487;48.626;12.486;2023-04-24T12:46:02;14.00;99.90
12841;DHT22;6487;48.626;12.486;2023-04-24T12:48:31;14.00;99.90
12841;DHT22;6487;48.626;12.486;2023-04-24T12:51:00;14.10;99.90
12841;DHT22;6487;48.626;12.486;2023-04-24T12:53:28;14.20;99.90
12841;DHT22;6487;48.626;12.486;2023-04-24T12:55:58;14.20;99.90
12841;DHT22;6487;48.626;12.486;2023-04-24T12:58:26;14.20;99.90
12841;DHT22;6487;48.626;12.486;2023-04-24T13:00:56;14.40;99.90
12841;DHT22;6487;48.626;12.486;2023-04-24T13:03:24;14.50;99.90
12841;DHT22;6487;48.626;12.486;2023-04-24T13:05:53;14.40;99.90
12841;DHT22;6487;48.626;12.486;2023-04-24T13:08:22;14.60;99.90
12841;DHT22;6487;48.626;12.486;2023-04-24T13:10:50;14.70;99.90
12841;DHT22;6487;48.626;12.486;2023-04-24T13:13:20;14.70;99.90
12841;DHT22;6487;48.626;12.486;2023-04-24T13:15:49;14.90;99.90
12841;DHT22;6487;48.626;12.486;2023-04-24T13:18:18;14.90;99.90
12841;DHT22;6487;48.626;12.486;2023-04-24T13:20:47;15.00;99.90
12841;DHT22;6487;48.626;12.486;2023-04-24T13:23:15;14.90;99.90
12841;DHT22;6487;48.626;12.486;2023-04-24T13:25:44;15.00;99.90
12841;DHT22;6487;48.626;12.486;2023-04-24T13:28:12;15.00;99.90
12841;DHT22;6487;48.626;12.486;2023-04-24T13:30:41;14.90;99.90
12841;DHT22;6487;48.626;12.486;2023-04-24T13:33:09;15.00;99.90
12841;DHT22;6487;48.626;12.486;2023-04-24T13:35:39;15.00;99.90
12841;DHT22;6487;48.626;12.486;2023-04-24T13:38:07;15.10;99.90
12841;DHT22;6487;48.626;12.486;2023-04-24T13:40:38;15.10;99.90
12841;DHT22;6487;48.626;12.486;2023-04-24T13:43:07;15.20;99.90
12841;DHT22;6487;48.626;12.486;2023-04-24T13:45:35;15.30;99.90
12841;DHT22;6487;48.626;12.486;2023-04-24T13:48:04;15.20;99.70
12841;DHT22;6487;48.626;12.486;2023-04-24T13:50:33;15.10;99.80
12841;DHT22;6487;48.626;12.486;2023-04-24T13:53:03;15.20;99.90
12841;DHT22;6487;48.626;12.486;2023-04-24T13:55:31;15.20;99.90
12841;DHT22;6487;48.626;12.486;2023-04-24T13:57:59;15.20;99.90
12841;DHT22;6487;48.626;12.486;2023-04-24T14:00:28;15.00;99.90
12841;DHT22;6487;48.626;12.486;2023-04-24T14:02:58;15.00;99.90
12841;DHT22;6487;48.626;12.486;2023-04-24T14:05:27;15.00;99.90
12841;DHT22;6487;48.626;12.486;2023-04-24T14:07:56;15.00;99.90
12841;DHT22;6487;48.626;12.486;2023-04-24T14:10:31;15.00;99.90
12841;DHT22;6487;48.626;12.486;2023-04-24T14:12:59;15.00;99.90
12841;DHT22;6487;48.626;12.486;2023-04-24T14:15:28;15.00;99.90
12841;DHT22;6487;48.626;12.486;2023-04-24T14:17:56;15.00;99.90
12841;DHT22;6487;48.626;12.486;2023-04-24T14:20:28;14.60;97.70
12841;DHT22;6487;48.626;12.486;2023-04-24T14:22:56;14.80;98.00
12841;DHT22;6487;48.626;12.486;2023-04-24T14:25:25;14.80;98.40
12841;DHT22;6487;48.626;12.486;2023-04-24T14:27:55;14.70;97.20
12841;DHT22;6487;48.626;12.486;2023-04-24T14:30:24;14.60;96.20
12841;DHT22;6487;48.626;12.486;2023-04-24T14:32:52;14.60;95.60
12841;DHT22;6487;48.626;12.486;2023-04-24T14:35:21;14.50;96.20
12841;DHT22;6487;48.626;12.486;2023-04-24T14:37:49;14.40;95.50
12841;DHT22;6487;48.626;12.486;2023-04-24T14:40:18;14.60;95.80
12841;DHT22;6487;48.626;12.486;2023-04-24T14:43:07;14.60;96.00
12841;DHT22;6487;48.626;12.486;2023-04-24T14:45:37;14.60;95.50
12841;DHT22;6487;48.626;12.486;2023-04-24T14:48:07;14.30;94.50
12841;DHT22;6487;48.626;12.486;2023-04-24T14:50:36;14.20;94.00
12841;DHT22;6487;48.626;12.486;2023-04-24T14:53:04;14.20;94.10
12841;DHT22;6487;48.626;12.486;2023-04-24T14:55:33;14.20;94.30
12841;DHT22;6487;48.626;12.486;2023-04-24T14:58:03;14.20;93.90
12841;DHT22;6487;48.626;12.486;2023-04-24T15:00:33;14.20;94.90
12841;DHT22;6487;48.626;12.486;2023-04-24T15:03:01;14.10;94.00
12841;DHT22;6487;48.626;12.486;2023-04-24T15:05:30;14.10;94.80
12841;DHT22;6487;48.626;12.486;2023-04-24T15:07:59;14.00;94.60
12841;DHT22;6487;48.626;12.486;2023-04-24T15:10:28;14.10;95.10
12841;DHT22;6487;48.626;12.486;2023-04-24T15:12:56;14.20;95.00
12841;DHT22;6487;48.626;12.486;2023-04-24T15:15:25;14.30;95.40
12841;DHT22;6487;48.626;12.486;2023-04-24T15:17:55;14.40;95.20
12841;DHT22;6487;48.626;12.486;2023-04-24T15:20:23;14.40;94.50
12841;DHT22;6487;48.626;12.486;2023-04-24T15:22:51;14.30;93.70
12841;DHT22;6487;48.626;12.486;2023-04-24T15:25:20;14.30;93.60
12841;DHT22;6487;48.626;12.486;2023-04-24T15:27:48;14.20;93.10
12841;DHT22;6487;48.626;12.486;2023-04-24T15:30:16;14.10;92.90
12841;DHT22;6487;48.626;12.486;2023-04-24T15:32:47;14.10;93.10
12841;DHT22;6487;48.626;12.486;2023-04-24T15:35:17;14.30;94.10
12841;DHT22;6487;48.626;12.486;2023-04-24T15:37:46;14.40;93.10
12841;DHT22;6487;48.626;12.486;2023-04-24T15:40:14;14.50;93.60
12841;DHT22;6487;48.626;12.486;2023-04-24T15:42:43;14.40;93.10
12841;DHT22;6487;48.626;12.486;2023-04-24T15:45:14;14.40;93.00